createdAt,value
2018-05-04T00:00:57.834Z,7.18
2018-05-04T00:03:26.247Z,6.18
2018-05-04T00:05:54.666Z,6.43
2018-05-04T00:08:23.076Z,7.28
2018-05-04T00:10:52.253Z,6.50
2018-05-04T00:13:20.649Z,6.25
2018-05-04T00:15:49.806Z,7.25
2018-05-04T00:18:18.173Z,7.10
2018-05-04T00:20:46.574Z,7.35
2018-05-04T00:23:15.837Z,7.85
2018-05-04T00:25:45.043Z,7.03
2018-05-04T00:28:13.424Z,7.20
2018-05-04T00:30:41.834Z,7.90
2018-05-04T00:33:12.104Z,7.45
2018-05-04T00:35:40.541Z,7.18
2018-05-04T00:38:09.036Z,7.10
2018-05-04T00:40:38.230Z,6.75
2018-05-04T00:43:07.218Z,6.80
2018-05-04T00:45:36.478Z,6.75
2018-05-04T00:48:05.974Z,5.50
2018-05-04T00:50:34.499Z,6.53
2018-05-04T00:53:02.898Z,6.95
2018-05-04T00:55:31.354Z,7.32
2018-05-04T00:58:00.536Z,5.95
2018-05-04T01:00:28.921Z,6.18
2018-05-04T01:02:57.330Z,6.60
2018-05-04T01:05:25.760Z,6.97
2018-05-04T01:07:54.145Z,7.25
2018-05-04T01:10:22.908Z,5.62
2018-05-04T01:12:51.322Z,6.78
2018-05-04T01:15:19.721Z,6.75
2018-05-04T01:17:48.106Z,6.82
2018-05-04T01:20:16.604Z,6.30
2018-05-04T01:22:45.779Z,6.30
2018-05-04T01:25:14.188Z,6.65
2018-05-04T01:27:43.354Z,6.50
2018-05-04T01:30:12.502Z,6.22
2018-05-04T01:32:41.715Z,6.68
2018-05-04T01:35:10.089Z,7.07
2018-05-04T01:37:38.695Z,5.65
2018-05-04T01:40:07.090Z,7.05
2018-05-04T01:42:35.465Z,7.30
2018-05-04T01:45:03.867Z,6.90
2018-05-04T01:47:32.275Z,7.62
2018-05-04T01:50:00.682Z,6.90
2018-05-04T01:52:29.833Z,7.47
2018-05-04T01:54:58.209Z,7.57
2018-05-04T01:57:26.611Z,7.55
2018-05-04T01:59:55.008Z,6.40
2018-05-04T02:02:23.397Z,5.97
2018-05-04T02:04:51.786Z,6.60
2018-05-04T02:07:20.191Z,6.28
2018-05-04T02:09:48.622Z,6.90
2018-05-04T02:12:17.009Z,7.50
2018-05-04T02:14:45.397Z,5.80
2018-05-04T02:17:13.794Z,6.85
2018-05-04T02:19:42.278Z,6.60
2018-05-04T02:22:10.678Z,7.30
2018-05-04T02:24:39.840Z,6.47
2018-05-04T02:27:09.007Z,6.43
2018-05-04T02:29:37.377Z,7.18
2018-05-04T02:32:06.087Z,7.05
2018-05-04T02:34:34.466Z,7.47
2018-05-04T02:37:02.868Z,6.55
2018-05-04T02:39:31.311Z,5.90
2018-05-04T02:42:00.494Z,6.57
2018-05-04T02:44:28.908Z,6.85
2018-05-04T02:46:57.303Z,7.72
2018-05-04T02:49:25.791Z,7.00
2018-05-04T02:51:54.274Z,6.60
2018-05-04T02:54:22.726Z,7.20
2018-05-04T02:56:51.918Z,7.40
2018-05-04T02:59:21.061Z,6.90
2018-05-04T03:01:49.462Z,6.55
2018-05-04T03:04:17.875Z,7.70
2018-05-04T03:06:46.290Z,7.07
2018-05-04T03:09:15.448Z,6.62
2018-05-04T03:11:43.810Z,6.87
2018-05-04T03:14:12.186Z,7.03
2018-05-04T03:16:40.665Z,7.25
2018-05-04T03:19:09.050Z,7.70
2018-05-04T03:21:37.435Z,7.00
2018-05-04T03:24:05.820Z,7.25
2018-05-04T03:26:34.216Z,7.20
2018-05-04T03:29:02.620Z,7.55
2018-05-04T03:31:30.989Z,7.32
2018-05-04T03:33:59.397Z,7.37
2018-05-04T03:36:27.770Z,7.53
2018-05-04T03:38:56.182Z,7.07
2018-05-04T03:41:24.602Z,6.40
2018-05-04T03:43:53.005Z,7.55
2018-05-04T03:46:22.173Z,6.28
2018-05-04T03:48:51.469Z,7.20
2018-05-04T03:51:19.893Z,7.80
2018-05-04T03:53:48.375Z,7.00
2018-05-04T03:56:16.888Z,8.38
2018-05-04T03:59:02.842Z,8.18
2018-05-04T04:01:48.783Z,8.68
2018-05-04T04:04:17.403Z,8.70
2018-05-04T04:06:45.790Z,9.55
2018-05-04T04:09:14.213Z,8.77
2018-05-04T04:11:42.596Z,7.53
2018-05-04T04:14:10.973Z,8.30
2018-05-04T04:16:39.345Z,9.48
2018-05-04T04:19:07.706Z,8.52
2018-05-04T04:21:36.077Z,8.27
2018-05-04T04:24:04.475Z,7.90
2018-05-04T04:26:32.939Z,7.12
2018-05-04T04:29:01.317Z,7.20
2018-05-04T04:31:29.691Z,7.50
2018-05-04T04:33:58.110Z,8.25
2018-05-04T04:36:26.734Z,9.70
2018-05-04T04:38:55.174Z,8.55
2018-05-04T04:41:24.305Z,10.48
2018-05-04T04:43:52.686Z,7.97
2018-05-04T04:46:22.103Z,8.25
2018-05-04T04:48:51.614Z,8.82
2018-05-04T04:51:20.098Z,9.30
2018-05-04T04:53:49.300Z,9.48
2018-05-04T04:56:19.346Z,8.93
2018-05-04T04:58:48.639Z,8.05
2018-05-04T05:01:17.829Z,9.95
2018-05-04T05:03:46.719Z,8.77
2018-05-04T05:06:16.693Z,9.95
2018-05-04T05:08:45.087Z,9.82
2018-05-04T05:11:15.235Z,9.77
2018-05-04T05:13:45.350Z,9.93
2018-05-04T05:16:13.802Z,12.05
2018-05-04T05:18:42.288Z,8.93
2018-05-04T05:21:11.082Z,9.98
2018-05-04T05:23:39.560Z,8.75
2018-05-04T05:26:07.889Z,9.55
2018-05-04T05:28:36.330Z,10.18
2018-05-04T05:31:04.754Z,9.50
2018-05-04T05:33:33.147Z,8.63
2018-05-04T05:36:01.543Z,10.60
2018-05-04T05:38:30.726Z,10.55
2018-05-04T05:40:59.118Z,10.20
2018-05-04T05:43:27.530Z,12.18
2018-05-04T05:45:55.925Z,9.85
2018-05-04T05:48:24.394Z,9.65
2018-05-04T05:50:52.827Z,9.98
2018-05-04T05:53:21.238Z,9.52
2018-05-04T05:55:49.635Z,10.77
2018-05-04T05:58:18.794Z,10.32
2018-05-04T06:00:47.987Z,10.18
2018-05-04T06:03:16.374Z,10.40
2018-05-04T06:05:44.807Z,10.23
2018-05-04T06:08:13.984Z,9.90
2018-05-04T06:10:42.386Z,9.65
2018-05-04T06:13:11.561Z,8.95
2018-05-04T06:15:39.962Z,10.70
2018-05-04T06:18:09.209Z,10.38
2018-05-04T06:20:37.634Z,10.27
2018-05-04T06:23:06.028Z,10.38
2018-05-04T06:25:35.198Z,9.60
2018-05-04T06:28:03.634Z,9.70
2018-05-04T06:30:32.038Z,10.05
2018-05-04T06:33:00.471Z,9.90
2018-05-04T06:35:29.870Z,10.40
2018-05-04T06:37:58.335Z,10.38
2018-05-04T06:40:26.764Z,9.67
2018-05-04T06:42:56.147Z,9.67
2018-05-04T06:45:24.694Z,9.60
2018-05-04T06:47:53.122Z,9.30
2018-05-04T06:50:21.526Z,10.07
2018-05-04T06:52:50.754Z,9.03
2018-05-04T06:55:19.186Z,8.27
2018-05-04T06:57:47.597Z,9.80
2018-05-04T07:00:16.755Z,9.27
2018-05-04T07:02:45.139Z,8.90
2018-05-04T07:05:13.570Z,8.77
2018-05-04T07:07:42.730Z,9.10
2018-05-04T07:10:12.611Z,8.90
2018-05-04T07:12:40.993Z,8.10
2018-05-04T07:15:09.412Z,9.80
2018-05-04T07:17:37.787Z,8.97
2018-05-04T07:20:06.154Z,9.30
2018-05-04T07:22:34.582Z,9.43
2018-05-04T07:25:02.969Z,8.63
2018-05-04T07:27:31.351Z,8.67
2018-05-04T07:29:59.762Z,9.70
2018-05-04T07:32:28.162Z,8.67
2018-05-04T07:34:56.550Z,9.20
2018-05-04T07:37:24.975Z,9.20
2018-05-04T07:39:53.675Z,8.30
2018-05-04T07:42:22.098Z,8.50
2018-05-04T07:44:50.754Z,5.90
2018-05-04T07:47:19.129Z,5.70
2018-05-04T07:49:47.542Z,6.40
2018-05-04T07:52:15.992Z,6.50
2018-05-04T07:54:44.382Z,6.20
2018-05-04T07:57:12.770Z,6.40
2018-05-04T07:59:41.952Z,5.53
2018-05-04T08:02:10.506Z,5.33
2018-05-04T08:04:38.902Z,5.80
2018-05-04T08:07:07.318Z,5.30
2018-05-04T08:09:35.724Z,5.13
2018-05-04T08:12:05.052Z,5.37
2018-05-04T08:14:33.489Z,5.77
2018-05-04T08:17:01.899Z,5.67
2018-05-04T08:19:30.313Z,4.50
2018-05-04T08:21:58.726Z,5.07
2018-05-04T08:24:27.109Z,4.97
2018-05-04T08:26:57.023Z,5.00
2018-05-04T08:29:25.441Z,4.80
2018-05-04T08:31:53.822Z,3.90
2018-05-04T08:34:22.977Z,5.23
2018-05-04T08:36:51.366Z,4.80
2018-05-04T08:39:19.021Z,5.13
2018-05-04T08:41:48.219Z,4.70
2018-05-04T08:44:16.645Z,4.50
2018-05-04T08:46:45.855Z,4.77
2018-05-04T08:49:14.221Z,5.00
2018-05-04T08:51:42.610Z,5.00
2018-05-04T08:54:11.008Z,4.87
2018-05-04T08:56:40.211Z,5.10
2018-05-04T08:59:09.418Z,4.13
2018-05-04T09:01:38.613Z,5.10
2018-05-04T09:04:07.774Z,4.50
2018-05-04T09:06:36.154Z,3.60
2018-05-04T09:09:04.610Z,4.27
2018-05-04T09:11:32.998Z,3.73
2018-05-04T09:14:01.415Z,3.93
2018-05-04T09:16:29.801Z,3.37
2018-05-04T09:18:58.181Z,3.40
2018-05-04T09:21:26.590Z,3.87
2018-05-04T09:23:55.742Z,3.60
2018-05-04T09:26:24.133Z,4.47
2018-05-04T09:28:52.513Z,5.43
2018-05-04T09:31:20.914Z,5.93
2018-05-04T09:33:49.324Z,5.37
2018-05-04T09:36:18.487Z,6.17
2018-05-04T09:38:46.882Z,6.10
2018-05-04T09:41:15.283Z,7.17
2018-05-04T09:43:43.746Z,7.50
2018-05-04T09:46:12.927Z,7.70
2018-05-04T09:48:41.392Z,6.53
2018-05-04T09:51:09.762Z,6.73
2018-05-04T09:53:38.933Z,7.03
2018-05-04T09:56:07.337Z,6.40
2018-05-04T09:58:36.491Z,6.83
2018-05-04T10:01:04.871Z,6.83
2018-05-04T10:03:33.331Z,5.50
2018-05-04T10:06:01.677Z,4.70
2018-05-04T10:08:31.122Z,5.10
2018-05-04T10:10:59.561Z,5.57
2018-05-04T10:13:27.958Z,4.13
2018-05-04T10:15:57.108Z,4.30
2018-05-04T10:18:25.498Z,5.23
2018-05-04T10:20:53.899Z,5.40
2018-05-04T10:23:22.305Z,4.30
2018-05-04T10:25:51.467Z,4.43
2018-05-04T10:28:19.854Z,4.33
2018-05-04T10:30:48.261Z,4.30
2018-05-04T10:33:16.747Z,5.30
2018-05-04T10:35:45.134Z,4.13
2018-05-04T10:38:14.597Z,4.20
2018-05-04T10:40:42.970Z,4.40
2018-05-04T10:43:11.334Z,4.90
2018-05-04T10:45:39.837Z,4.90
2018-05-04T10:48:08.294Z,4.83
2018-05-04T10:50:37.489Z,5.27
2018-05-04T10:53:06.658Z,5.20
2018-05-04T10:55:35.100Z,4.50
2018-05-04T10:58:03.504Z,3.80
2018-05-04T11:00:31.921Z,4.60
2018-05-04T11:03:00.297Z,3.63
2018-05-04T11:05:28.903Z,4.70
2018-05-04T11:07:58.009Z,4.83
2018-05-04T11:10:26.450Z,4.83
2018-05-04T11:12:54.878Z,5.00
2018-05-04T11:15:23.274Z,5.10
2018-05-04T11:17:52.454Z,5.13
2018-05-04T11:20:20.950Z,5.33
2018-05-04T11:22:49.329Z,3.93
2018-05-04T11:25:17.835Z,5.43
2018-05-04T11:27:46.205Z,4.20
2018-05-04T11:30:14.686Z,3.80
2018-05-04T11:32:43.860Z,3.93
2018-05-04T11:35:12.277Z,4.70
2018-05-04T11:37:41.438Z,3.80
2018-05-04T11:40:09.858Z,4.37
2018-05-04T11:42:39.051Z,3.80
2018-05-04T11:45:07.579Z,4.27
2018-05-04T11:47:36.267Z,3.63
2018-05-04T11:50:05.059Z,3.40
2018-05-04T11:52:33.480Z,3.50
2018-05-04T11:55:01.894Z,3.70
2018-05-04T11:57:32.023Z,2.80
2018-05-04T12:00:01.254Z,3.03
2018-05-04T12:02:29.658Z,3.47
2018-05-04T12:04:58.026Z,3.40
2018-05-04T12:07:26.463Z,2.53
2018-05-04T12:09:54.903Z,2.83
2018-05-04T12:12:23.315Z,3.00
2018-05-04T12:14:51.747Z,3.53
2018-05-04T12:17:20.159Z,3.03
2018-05-04T12:19:49.321Z,3.10
2018-05-04T12:22:18.493Z,3.60
2018-05-04T12:24:46.929Z,3.40
2018-05-04T12:27:15.303Z,3.00
2018-05-04T12:29:43.738Z,3.73
2018-05-04T12:32:12.155Z,3.40
2018-05-04T12:34:40.615Z,2.83
2018-05-04T12:37:09.067Z,3.23
2018-05-04T12:39:37.441Z,2.87
2018-05-04T12:42:05.917Z,4.30
2018-05-04T12:44:34.349Z,3.83
2018-05-04T12:47:02.803Z,3.10
2018-05-04T12:49:32.269Z,7.20
2018-05-04T12:52:01.458Z,3.70
2018-05-04T12:54:29.866Z,3.20
2018-05-04T12:56:58.330Z,3.10
2018-05-04T12:59:27.514Z,4.20
2018-05-04T13:01:56.188Z,2.87
2018-05-04T13:04:24.545Z,3.43
2018-05-04T13:06:52.950Z,4.30
2018-05-04T13:09:22.886Z,3.50
2018-05-04T13:11:52.127Z,3.47
2018-05-04T13:14:20.521Z,3.37
2018-05-04T13:16:48.998Z,3.50
2018-05-04T13:19:17.577Z,3.40
2018-05-04T13:21:46.761Z,3.57
2018-05-04T13:24:15.963Z,3.80
2018-05-04T13:26:46.080Z,4.50
2018-05-04T13:29:15.394Z,4.30
2018-05-04T13:31:46.521Z,4.10
2018-05-04T13:34:15.749Z,5.10
2018-05-04T13:36:46.001Z,4.70
2018-05-04T13:39:15.402Z,3.80
2018-05-04T13:41:43.789Z,4.67
2018-05-04T13:44:12.236Z,4.00
2018-05-04T13:46:40.666Z,3.80
2018-05-04T13:49:09.486Z,4.23
2018-05-04T13:51:38.082Z,4.57
2018-05-04T13:54:06.391Z,5.37
2018-05-04T13:56:35.635Z,4.70
2018-05-04T13:59:04.028Z,4.87
2018-05-04T14:01:32.730Z,4.97
2018-05-04T14:04:01.155Z,4.40
2018-05-04T14:06:30.323Z,4.93
2018-05-04T14:08:58.744Z,4.67
2018-05-04T14:11:27.925Z,4.60
2018-05-04T14:13:57.251Z,4.60
2018-05-04T14:16:26.445Z,5.07
2018-05-04T14:18:55.602Z,4.27
2018-05-04T14:21:24.079Z,3.63
2018-05-04T14:23:52.927Z,4.33
2018-05-04T14:26:22.099Z,5.23
2018-05-04T14:28:51.319Z,3.97
2018-05-04T14:31:20.538Z,4.00
2018-05-04T14:33:49.730Z,5.07
2018-05-04T14:36:18.145Z,5.00
2018-05-04T14:38:46.546Z,3.90
2018-05-04T14:41:14.963Z,3.80
2018-05-04T14:43:43.374Z,4.80
2018-05-04T14:46:12.803Z,4.30
2018-05-04T14:48:41.203Z,4.20
2018-05-04T14:51:09.600Z,4.10
2018-05-04T14:53:38.362Z,4.03
2018-05-04T14:56:06.782Z,4.70
2018-05-04T14:58:35.193Z,3.63
2018-05-04T15:01:03.665Z,4.27
2018-05-04T15:03:32.264Z,4.53
2018-05-04T15:06:00.648Z,4.20
2018-05-04T15:08:29.839Z,4.57
2018-05-04T15:10:58.222Z,4.33
2018-05-04T15:13:26.630Z,4.40
2018-05-04T15:15:56.111Z,3.80
2018-05-04T15:18:25.201Z,4.10
2018-05-04T15:20:53.608Z,3.50
2018-05-04T15:23:22.018Z,4.00
2018-05-04T15:25:50.438Z,3.63
2018-05-04T15:28:18.902Z,3.90
2018-05-04T15:30:47.321Z,2.70
2018-05-04T15:33:15.782Z,3.37
2018-05-04T15:35:44.191Z,3.37
2018-05-04T15:38:12.626Z,3.40
2018-05-04T15:40:41.043Z,3.17
2018-05-04T15:43:09.528Z,3.37
2018-05-04T15:45:38.256Z,3.37
2018-05-04T15:48:12.883Z,3.60
2018-05-04T15:50:46.891Z,3.20
2018-05-04T15:53:15.418Z,4.30
2018-05-04T15:55:43.853Z,3.57
2018-05-04T15:58:12.258Z,2.90
2018-05-04T16:00:42.379Z,3.17
2018-05-04T16:03:10.774Z,2.90
2018-05-04T16:05:39.967Z,3.67
2018-05-04T16:08:09.142Z,3.00
2018-05-04T16:10:37.555Z,3.90
2018-05-04T16:13:06.724Z,3.37
2018-05-04T16:15:35.134Z,3.33
2018-05-04T16:18:04.402Z,3.40
2018-05-04T16:20:32.809Z,3.40
2018-05-04T16:23:01.699Z,3.70
2018-05-04T16:25:30.086Z,3.43
2018-05-04T16:27:58.578Z,2.83
2018-05-04T16:30:27.015Z,2.93
2018-05-04T16:32:55.465Z,3.50
2018-05-04T16:35:24.629Z,4.47
2018-05-04T16:37:53.031Z,3.30
2018-05-04T16:40:21.436Z,3.23
2018-05-04T16:42:50.613Z,3.27
2018-05-04T16:45:19.026Z,3.63
2018-05-04T16:47:52.869Z,4.00
2018-05-04T16:50:21.283Z,3.30
2018-05-04T16:52:50.446Z,2.87
2018-05-04T16:55:18.860Z,4.37
2018-05-04T16:57:47.327Z,5.53
2018-05-04T17:00:15.745Z,4.17
2018-05-04T17:02:44.129Z,3.80
2018-05-04T17:05:13.416Z,3.30
2018-05-04T17:07:41.800Z,3.77
2018-05-04T17:10:10.205Z,3.50
2018-05-04T17:12:40.180Z,3.83
2018-05-04T17:15:08.627Z,4.93
2018-05-04T17:17:37.033Z,3.83
2018-05-04T17:20:05.434Z,6.50
2018-05-04T17:22:34.089Z,4.70
2018-05-04T17:25:02.634Z,5.10
2018-05-04T17:27:31.125Z,4.00
2018-05-04T17:29:59.552Z,3.23
2018-05-04T17:32:27.971Z,4.40
2018-05-04T17:34:56.461Z,4.60
2018-05-04T17:37:25.666Z,4.50
2018-05-04T17:39:54.078Z,5.20
2018-05-04T17:42:23.266Z,4.63
2018-05-04T17:44:51.702Z,5.10
2018-05-04T17:47:20.281Z,4.43
2018-05-04T17:49:49.663Z,4.23
2018-05-04T17:52:18.122Z,5.47
2018-05-04T17:54:46.562Z,5.53
2018-05-04T17:57:15.043Z,28.10
2018-05-04T17:59:43.556Z,7.40
2018-05-04T18:02:12.769Z,4.00
2018-05-04T18:04:41.940Z,4.50
2018-05-04T18:07:11.301Z,4.17
2018-05-04T18:09:39.733Z,6.93
2018-05-04T18:12:08.163Z,4.53
2018-05-04T18:14:36.590Z,3.67
2018-05-04T18:17:05.114Z,3.73
2018-05-04T18:19:34.059Z,3.70
2018-05-04T18:22:02.508Z,4.80
2018-05-04T18:24:30.923Z,4.47
2018-05-04T18:27:00.140Z,5.10
2018-05-04T18:29:28.568Z,4.20
2018-05-04T18:31:56.948Z,4.50
2018-05-04T18:34:25.370Z,3.50
2018-05-04T18:36:54.571Z,4.23
2018-05-04T18:39:23.826Z,4.00
2018-05-04T18:41:52.255Z,4.03
2018-05-04T18:47:00.438Z,4.00
2018-05-04T18:49:28.914Z,4.60
2018-05-04T18:51:57.378Z,4.20
2018-05-04T18:54:25.819Z,3.80
2018-05-04T18:56:54.226Z,5.10
2018-05-04T18:59:24.326Z,3.70
2018-05-04T19:01:53.512Z,4.83
2018-05-04T19:04:21.965Z,5.37
2018-05-04T19:06:50.392Z,3.90
2018-05-04T19:09:18.801Z,4.47
2018-05-04T19:11:47.228Z,4.93
2018-05-04T19:14:15.661Z,4.87
2018-05-04T19:16:44.916Z,4.83
2018-05-04T19:19:13.366Z,5.20
2018-05-04T19:21:41.807Z,5.90
2018-05-04T19:24:10.219Z,5.70
2018-05-04T19:26:39.407Z,5.80
2018-05-04T19:29:07.878Z,5.07
2018-05-04T19:31:36.252Z,6.07
2018-05-04T19:34:04.717Z,5.67
2018-05-04T19:36:33.129Z,5.73
2018-05-04T19:39:01.564Z,5.87
2018-05-04T19:41:29.979Z,6.60
2018-05-04T19:43:58.449Z,5.83
2018-05-04T19:46:27.186Z,5.40
2018-05-04T19:48:55.642Z,5.27
2018-05-04T19:51:24.053Z,6.23
2018-05-04T19:53:52.747Z,6.80
2018-05-04T19:56:21.934Z,6.43
2018-05-04T19:58:50.402Z,7.17
2018-05-04T20:01:18.803Z,6.67
2018-05-04T20:03:47.233Z,5.90
2018-05-04T20:06:16.001Z,6.70
2018-05-04T20:08:45.193Z,6.20
2018-05-04T20:11:13.602Z,6.60
2018-05-04T20:13:42.004Z,7.00
2018-05-04T20:16:10.381Z,7.20
2018-05-04T20:18:38.879Z,7.60
2018-05-04T20:21:07.355Z,7.90
2018-05-04T20:23:35.787Z,7.53
2018-05-04T20:26:04.241Z,7.20
2018-05-04T20:28:32.717Z,6.73
2018-05-04T20:31:01.194Z,7.00
2018-05-04T20:33:29.666Z,5.90
2018-05-04T20:35:58.198Z,7.70
2018-05-04T20:38:26.613Z,6.87
2018-05-04T20:40:55.823Z,7.57
2018-05-04T20:43:24.265Z,6.97
2018-05-04T20:45:53.001Z,6.30
2018-05-04T20:48:25.875Z,6.67
2018-05-04T20:50:54.380Z,6.63
2018-05-04T20:53:23.783Z,6.90
2018-05-04T20:55:52.998Z,6.73
2018-05-04T20:58:21.429Z,5.80
2018-05-04T21:00:50.969Z,6.70
2018-05-04T21:03:20.172Z,6.57
2018-05-04T21:05:48.714Z,6.33
2018-05-04T21:08:18.778Z,7.50
2018-05-04T21:10:47.289Z,6.40
2018-05-04T21:13:16.436Z,6.50
2018-05-04T21:15:44.871Z,7.30
2018-05-04T21:18:13.361Z,6.60
2018-05-04T21:20:41.816Z,6.33
2018-05-04T21:23:11.190Z,6.47
2018-05-04T21:25:39.772Z,6.20
2018-05-04T21:28:08.256Z,6.13
2018-05-04T21:30:40.106Z,6.03
2018-05-04T21:33:08.719Z,6.87
2018-05-04T21:35:37.131Z,7.07
2018-05-04T21:38:06.324Z,5.70
2018-05-04T21:40:35.502Z,5.07
2018-05-04T21:43:03.914Z,6.83
2018-05-04T21:45:33.098Z,5.70
2018-05-04T21:48:01.521Z,6.47
2018-05-04T21:50:30.159Z,6.63
2018-05-04T21:52:58.572Z,6.20
2018-05-04T21:55:27.766Z,7.13
2018-05-04T21:57:56.312Z,6.37
2018-05-04T22:00:24.808Z,6.57
2018-05-04T22:02:54.105Z,6.73
2018-05-04T22:05:22.514Z,6.67
2018-05-04T22:07:54.944Z,6.27
2018-05-04T22:10:23.590Z,5.93
2018-05-04T22:12:53.686Z,5.50
2018-05-04T22:15:23.912Z,6.17
2018-05-04T22:17:52.394Z,5.33
2018-05-04T22:20:20.808Z,5.93
2018-05-04T22:22:53.621Z,5.80
2018-05-04T22:25:27.793Z,5.55
2018-05-04T22:28:04.379Z,6.20
2018-05-04T22:30:33.858Z,5.80
2018-05-04T22:33:03.676Z,5.53
2018-05-04T22:35:32.513Z,4.90
2018-05-04T22:38:01.932Z,5.72
2018-05-04T22:40:31.006Z,5.20
2018-05-04T22:43:00.221Z,5.90
2018-05-04T22:45:28.732Z,6.50
2018-05-04T22:47:57.157Z,5.68
2018-05-04T22:50:25.586Z,6.20
2018-05-04T22:52:54.230Z,5.53
2018-05-04T22:55:22.711Z,5.90
2018-05-04T22:57:51.849Z,4.65
2018-05-04T23:00:24.598Z,5.20
2018-05-04T23:02:53.010Z,6.35
2018-05-04T23:05:22.204Z,5.45
2018-05-04T23:07:51.300Z,5.80
2018-05-04T23:10:20.514Z,5.87
2018-05-04T23:12:49.742Z,5.03
2018-05-04T23:15:18.436Z,5.80
2018-05-04T23:17:47.213Z,5.57
2018-05-04T23:20:15.681Z,5.00
2018-05-04T23:22:44.858Z,4.75
2018-05-04T23:25:13.283Z,5.35
2018-05-04T23:27:41.687Z,5.35
2018-05-04T23:30:10.423Z,5.00
2018-05-04T23:32:38.939Z,4.62
2018-05-04T23:35:07.357Z,4.80
2018-05-04T23:37:35.782Z,5.10
2018-05-04T23:40:04.939Z,4.87
2018-05-04T23:42:33.426Z,4.75
2018-05-04T23:45:01.860Z,5.30
2018-05-04T23:47:31.016Z,5.18
2018-05-04T23:49:59.749Z,5.90
2018-05-04T23:52:28.962Z,5.00
2018-05-04T23:54:57.519Z,5.43
2018-05-04T23:57:25.935Z,5.07
2018-05-04T23:59:55.116Z,5.45
